<?xml version="1.0" encoding="utf-8"?>
<gpx xmlns:xsi="http://www.w3.org/2001/XMLSchema-instance" xmlns:xsd="http://www.w3.org/2001/XMLSchema" version="1.1" creator="Shapelink.com" xmlns="http://www.topografix.com/GPX/1/1" xmlns:gpxtpx="http://www.garmin.com/xmlschemas/TrackPointExtension/v1">
  <metadata>
    <name>Ejecutar 6.74 km, 2020-01-14</name>
    <desc></desc>
    <author><name>Per Rooth</name></author> 
    <time>2020-01-14T18:09:10Z</time>
  </metadata>
  <trk>
    <name>Ejecutar 6.74 km, 2020-01-14</name>
    <trkseg>
      <trkpt lat="56.891179733111" lon="14.824172768003">
        <ele>172.8</ele>
        <time>2020-01-14T18:09:10Z</time>
      </trkpt>
      <trkpt lat="56.891145283502" lon="14.824204619223">
        <ele>171.8</ele>
        <time>2020-01-14T18:09:12Z</time>
      </trkpt>
      <trkpt lat="56.891019219726" lon="14.824434786197">
        <ele>172.6</ele>
        <time>2020-01-14T18:09:20Z</time>
      </trkpt>
      <trkpt lat="56.890873458485" lon="14.824642573498">
        <ele>172.2</ele>
        <time>2020-01-14T18:09:28Z</time>
      </trkpt>
      <trkpt lat="56.890858454884" lon="14.824669647035">
        <ele>171.6</ele>
        <time>2020-01-14T18:09:29Z</time>
      </trkpt>
      <trkpt lat="56.890819898144" lon="14.824767882903">
        <ele>170.2</ele>
        <time>2020-01-14T18:09:32Z</time>
      </trkpt>
      <trkpt lat="56.890738342257" lon="14.825001486456">
        <ele>169.2</ele>
        <time>2020-01-14T18:09:38Z</time>
      </trkpt>
      <trkpt lat="56.890619822191" lon="14.825240454425">
        <ele>168.2</ele>
        <time>2020-01-14T18:09:45Z</time>
      </trkpt>
      <trkpt lat="56.890488226361" lon="14.825480679679">
        <ele>168.2</ele>
        <time>2020-01-14T18:09:53Z</time>
      </trkpt>
      <trkpt lat="56.890467774525" lon="14.825558212254">
        <ele>168.4</ele>
        <time>2020-01-14T18:09:55Z</time>
      </trkpt>
      <trkpt lat="56.890385715724" lon="14.825892314788">
        <ele>167.6</ele>
        <time>2020-01-14T18:10:02Z</time>
      </trkpt>
      <trkpt lat="56.890368281372" lon="14.825979151272">
        <ele>167.2</ele>
        <time>2020-01-14T18:10:04Z</time>
      </trkpt>
      <trkpt lat="56.89030642295" lon="14.826325826656">
        <ele>167</ele>
        <time>2020-01-14T18:10:12Z</time>
      </trkpt>
      <trkpt lat="56.890314385755" lon="14.826673675506">
        <ele>166.8</ele>
        <time>2020-01-14T18:10:20Z</time>
      </trkpt>
      <trkpt lat="56.890310865357" lon="14.82694994293">
        <ele>166.6</ele>
        <time>2020-01-14T18:10:27Z</time>
      </trkpt>
      <trkpt lat="56.89030558476" lon="14.8273044973">
        <ele>166.8</ele>
        <time>2020-01-14T18:10:36Z</time>
      </trkpt>
      <trkpt lat="56.890283875639" lon="14.827651088865">
        <ele>166.2</ele>
        <time>2020-01-14T18:10:44Z</time>
      </trkpt>
      <trkpt lat="56.890255544817" lon="14.827837334683">
        <ele>166.2</ele>
        <time>2020-01-14T18:10:49Z</time>
      </trkpt>
      <trkpt lat="56.890244983623" lon="14.827934229447">
        <ele>166</ele>
        <time>2020-01-14T18:10:51Z</time>
      </trkpt>
      <trkpt lat="56.890153201818" lon="14.828156685073">
        <ele>167</ele>
        <time>2020-01-14T18:10:57Z</time>
      </trkpt>
      <trkpt lat="56.890047841335" lon="14.828297081898">
        <ele>167</ele>
        <time>2020-01-14T18:11:03Z</time>
      </trkpt>
      <trkpt lat="56.889927728708" lon="14.828575277159">
        <ele>166.6</ele>
        <time>2020-01-14T18:11:11Z</time>
      </trkpt>
      <trkpt lat="56.889858913309" lon="14.828893118807">
        <ele>166.8</ele>
        <time>2020-01-14T18:11:19Z</time>
      </trkpt>
      <trkpt lat="56.889848519753" lon="14.829182545814">
        <ele>166.8</ele>
        <time>2020-01-14T18:11:26Z</time>
      </trkpt>
      <trkpt lat="56.88966772217" lon="14.829262173864">
        <ele>166.6</ele>
        <time>2020-01-14T18:11:34Z</time>
      </trkpt>
      <trkpt lat="56.889477369221" lon="14.82932202063">
        <ele>166.8</ele>
        <time>2020-01-14T18:11:43Z</time>
      </trkpt>
      <trkpt lat="56.889293386516" lon="14.829366109424">
        <ele>166.6</ele>
        <time>2020-01-14T18:11:51Z</time>
      </trkpt>
      <trkpt lat="56.889208142593" lon="14.829395529893">
        <ele>166</ele>
        <time>2020-01-14T18:11:55Z</time>
      </trkpt>
      <trkpt lat="56.889026339182" lon="14.82947624759">
        <ele>166</ele>
        <time>2020-01-14T18:12:03Z</time>
      </trkpt>
      <trkpt lat="56.888828526342" lon="14.829541291134">
        <ele>166</ele>
        <time>2020-01-14T18:12:12Z</time>
      </trkpt>
      <trkpt lat="56.888642196705" lon="14.829633575853">
        <ele>165.6</ele>
        <time>2020-01-14T18:12:20Z</time>
      </trkpt>
      <trkpt lat="56.888557623334" lon="14.829775732877">
        <ele>165.8</ele>
        <time>2020-01-14T18:12:24Z</time>
      </trkpt>
      <trkpt lat="56.888469613384" lon="14.830096089095">
        <ele>166</ele>
        <time>2020-01-14T18:12:31Z</time>
      </trkpt>
      <trkpt lat="56.888403983107" lon="14.830413176372">
        <ele>166.6</ele>
        <time>2020-01-14T18:12:38Z</time>
      </trkpt>
      <trkpt lat="56.888333491328" lon="14.830733029676">
        <ele>166.8</ele>
        <time>2020-01-14T18:12:45Z</time>
      </trkpt>
      <trkpt lat="56.888287307059" lon="14.830985324866">
        <ele>167</ele>
        <time>2020-01-14T18:12:51Z</time>
      </trkpt>
      <trkpt lat="56.888257299857" lon="14.83115262759">
        <ele>168.2</ele>
        <time>2020-01-14T18:12:55Z</time>
      </trkpt>
      <trkpt lat="56.888223017886" lon="14.831364941117">
        <ele>169.4</ele>
        <time>2020-01-14T18:13:01Z</time>
      </trkpt>
      <trkpt lat="56.888204912982" lon="14.831549342917">
        <ele>170.6</ele>
        <time>2020-01-14T18:13:06Z</time>
      </trkpt>
      <trkpt lat="56.888199548566" lon="14.831757633132">
        <ele>171.8</ele>
        <time>2020-01-14T18:13:11Z</time>
      </trkpt>
      <trkpt lat="56.888203990973" lon="14.832016717661">
        <ele>172.8</ele>
        <time>2020-01-14T18:13:18Z</time>
      </trkpt>
      <trkpt lat="56.888211953778" lon="14.832194330122">
        <ele>174</ele>
        <time>2020-01-14T18:13:21Z</time>
      </trkpt>
      <trkpt lat="56.888218826936" lon="14.832550393234">
        <ele>174.6</ele>
        <time>2020-01-14T18:13:28Z</time>
      </trkpt>
      <trkpt lat="56.888218910755" lon="14.832594398209">
        <ele>174.6</ele>
        <time>2020-01-14T18:13:29Z</time>
      </trkpt>
      <trkpt lat="56.888237350935" lon="14.83290193012">
        <ele>175</ele>
        <time>2020-01-14T18:13:36Z</time>
      </trkpt>
      <trkpt lat="56.888245649016" lon="14.833232596075">
        <ele>175.6</ele>
        <time>2020-01-14T18:13:43Z</time>
      </trkpt>
      <trkpt lat="56.888248247405" lon="14.833325383708">
        <ele>176.2</ele>
        <time>2020-01-14T18:13:45Z</time>
      </trkpt>
      <trkpt lat="56.888261742264" lon="14.833695612231">
        <ele>176.6</ele>
        <time>2020-01-14T18:13:53Z</time>
      </trkpt>
      <trkpt lat="56.888289402534" lon="14.833949751439">
        <ele>177.4</ele>
        <time>2020-01-14T18:13:59Z</time>
      </trkpt>
      <trkpt lat="56.888299293176" lon="14.834303299981">
        <ele>177.4</ele>
        <time>2020-01-14T18:14:07Z</time>
      </trkpt>
      <trkpt lat="56.888293593484" lon="14.834642766931">
        <ele>178.2</ele>
        <time>2020-01-14T18:14:15Z</time>
      </trkpt>
      <trkpt lat="56.888290743638" lon="14.834683838241">
        <ele>178.4</ele>
        <time>2020-01-14T18:14:16Z</time>
      </trkpt>
      <trkpt lat="56.888266687585" lon="14.834925991332">
        <ele>179.6</ele>
        <time>2020-01-14T18:14:22Z</time>
      </trkpt>
      <trkpt lat="56.888252270717" lon="14.835252382518">
        <ele>180.2</ele>
        <time>2020-01-14T18:14:29Z</time>
      </trkpt>
      <trkpt lat="56.888256964581" lon="14.835595956599">
        <ele>180</ele>
        <time>2020-01-14T18:14:36Z</time>
      </trkpt>
      <trkpt lat="56.888209439208" lon="14.83589510661">
        <ele>179.4</ele>
        <time>2020-01-14T18:14:43Z</time>
      </trkpt>
      <trkpt lat="56.888089829495" lon="14.836215965742">
        <ele>178.4</ele>
        <time>2020-01-14T18:14:50Z</time>
      </trkpt>
      <trkpt lat="56.887947001919" lon="14.836423753043">
        <ele>178.4</ele>
        <time>2020-01-14T18:14:56Z</time>
      </trkpt>
      <trkpt lat="56.887873827932" lon="14.836712844774">
        <ele>179.2</ele>
        <time>2020-01-14T18:15:05Z</time>
      </trkpt>
      <trkpt lat="56.887864607842" lon="14.836961451928">
        <ele>179.6</ele>
        <time>2020-01-14T18:15:10Z</time>
      </trkpt>
      <trkpt lat="56.887843401635" lon="14.837290944417">
        <ele>180.2</ele>
        <time>2020-01-14T18:15:16Z</time>
      </trkpt>
      <trkpt lat="56.887830242052" lon="14.837544748349">
        <ele>180.6</ele>
        <time>2020-01-14T18:15:21Z</time>
      </trkpt>
      <trkpt lat="56.887837534305" lon="14.83787323501">
        <ele>180.4</ele>
        <time>2020-01-14T18:15:28Z</time>
      </trkpt>
      <trkpt lat="56.887792104407" lon="14.83820348187">
        <ele>180.2</ele>
        <time>2020-01-14T18:15:35Z</time>
      </trkpt>
      <trkpt lat="56.887778022815" lon="14.838305405774">
        <ele>180.2</ele>
        <time>2020-01-14T18:15:37Z</time>
      </trkpt>
      <trkpt lat="56.88778430924" lon="14.838448065712">
        <ele>180.2</ele>
        <time>2020-01-14T18:15:40Z</time>
      </trkpt>
      <trkpt lat="56.88776419268" lon="14.838774456898">
        <ele>180.2</ele>
        <time>2020-01-14T18:15:47Z</time>
      </trkpt>
      <trkpt lat="56.887710045606" lon="14.839114175305">
        <ele>181</ele>
        <time>2020-01-14T18:15:54Z</time>
      </trkpt>
      <trkpt lat="56.887789086923" lon="14.839410307832">
        <ele>181.4</ele>
        <time>2020-01-14T18:16:01Z</time>
      </trkpt>
      <trkpt lat="56.88787567195" lon="14.83974994242">
        <ele>180.8</ele>
        <time>2020-01-14T18:16:08Z</time>
      </trkpt>
      <trkpt lat="56.887946750462" lon="14.84008354204">
        <ele>181.6</ele>
        <time>2020-01-14T18:16:16Z</time>
      </trkpt>
      <trkpt lat="56.88795362362" lon="14.840113884518">
        <ele>181.8</ele>
        <time>2020-01-14T18:16:17Z</time>
      </trkpt>
      <trkpt lat="56.887680541318" lon="14.839176117546">
        <ele>181.4</ele>
        <time>2020-01-14T18:24:40Z</time>
      </trkpt>
      <trkpt lat="56.887638799456" lon="14.839124736499">
        <ele>180.6</ele>
        <time>2020-01-14T18:24:44Z</time>
      </trkpt>
      <trkpt lat="56.887567050392" lon="14.838944274192">
        <ele>181</ele>
        <time>2020-01-14T18:24:49Z</time>
      </trkpt>
      <trkpt lat="56.887588256599" lon="14.838866825436">
        <ele>181.2</ele>
        <time>2020-01-14T18:24:51Z</time>
      </trkpt>
      <trkpt lat="56.887703423905" lon="14.838844361944">
        <ele>181</ele>
        <time>2020-01-14T18:24:55Z</time>
      </trkpt>
      <trkpt lat="56.887763270671" lon="14.839167819465">
        <ele>181.6</ele>
        <time>2020-01-14T18:25:01Z</time>
      </trkpt>
      <trkpt lat="56.887910205378" lon="14.83940544633">
        <ele>181.4</ele>
        <time>2020-01-14T18:25:07Z</time>
      </trkpt>
      <trkpt lat="56.888066108718" lon="14.839608958862">
        <ele>181.4</ele>
        <time>2020-01-14T18:25:14Z</time>
      </trkpt>
      <trkpt lat="56.888223269343" lon="14.839777183595">
        <ele>179.8</ele>
        <time>2020-01-14T18:25:21Z</time>
      </trkpt>
      <trkpt lat="56.888369198222" lon="14.839923112474">
        <ele>179.6</ele>
        <time>2020-01-14T18:25:27Z</time>
      </trkpt>
      <trkpt lat="56.888541110991" lon="14.840077507072">
        <ele>179.6</ele>
        <time>2020-01-14T18:25:34Z</time>
      </trkpt>
      <trkpt lat="56.888733391777" lon="14.840237936638">
        <ele>179.6</ele>
        <time>2020-01-14T18:25:40Z</time>
      </trkpt>
      <trkpt lat="56.888937323404" lon="14.840364754785">
        <ele>179</ele>
        <time>2020-01-14T18:25:46Z</time>
      </trkpt>
      <trkpt lat="56.889097333875" lon="14.840565166014">
        <ele>178.6</ele>
        <time>2020-01-14T18:25:52Z</time>
      </trkpt>
      <trkpt lat="56.889129436552" lon="14.840638507639">
        <ele>178.6</ele>
        <time>2020-01-14T18:25:54Z</time>
      </trkpt>
      <trkpt lat="56.889118791539" lon="14.840668011927">
        <ele>178.6</ele>
        <time>2020-01-14T18:25:55Z</time>
      </trkpt>
      <trkpt lat="56.888941430535" lon="14.840791142038">
        <ele>177.8</ele>
        <time>2020-01-14T18:26:03Z</time>
      </trkpt>
      <trkpt lat="56.888763482798" lon="14.840885522232">
        <ele>179.6</ele>
        <time>2020-01-14T18:26:11Z</time>
      </trkpt>
      <trkpt lat="56.888745210256" lon="14.8408999391">
        <ele>180</ele>
        <time>2020-01-14T18:26:12Z</time>
      </trkpt>
      <trkpt lat="56.888705815326" lon="14.840928186103">
        <ele>181.2</ele>
        <time>2020-01-14T18:26:14Z</time>
      </trkpt>
      <trkpt lat="56.888664324921" lon="14.840968000128">
        <ele>182.4</ele>
        <time>2020-01-14T18:26:16Z</time>
      </trkpt>
      <trkpt lat="56.888595844798" lon="14.841029355636">
        <ele>183.4</ele>
        <time>2020-01-14T18:26:19Z</time>
      </trkpt>
      <trkpt lat="56.888411694455" lon="14.841139912897">
        <ele>184.2</ele>
        <time>2020-01-14T18:26:25Z</time>
      </trkpt>
      <trkpt lat="56.888226789741" lon="14.841086604013">
        <ele>184.2</ele>
        <time>2020-01-14T18:26:32Z</time>
      </trkpt>
      <trkpt lat="56.888099049585" lon="14.840797177006">
        <ele>182.4</ele>
        <time>2020-01-14T18:26:39Z</time>
      </trkpt>
      <trkpt lat="56.88808605764" lon="14.840754261678">
        <ele>182.4</ele>
        <time>2020-01-14T18:26:40Z</time>
      </trkpt>
      <trkpt lat="56.888007016323" lon="14.840419153316">
        <ele>182</ele>
        <time>2020-01-14T18:26:46Z</time>
      </trkpt>
      <trkpt lat="56.887991928903" lon="14.84030566239">
        <ele>181.4</ele>
        <time>2020-01-14T18:26:48Z</time>
      </trkpt>
      <trkpt lat="56.887907858446" lon="14.839966027802">
        <ele>180.6</ele>
        <time>2020-01-14T18:26:54Z</time>
      </trkpt>
      <trkpt lat="56.887841725255" lon="14.839743907452">
        <ele>180.4</ele>
        <time>2020-01-14T18:26:58Z</time>
      </trkpt>
      <trkpt lat="56.887740639541" lon="14.839472417711">
        <ele>180.6</ele>
        <time>2020-01-14T18:27:05Z</time>
      </trkpt>
      <trkpt lat="56.887719517153" lon="14.839421539578">
        <ele>181</ele>
        <time>2020-01-14T18:27:08Z</time>
      </trkpt>
      <trkpt lat="56.887703675362" lon="14.839409134366">
        <ele>181.2</ele>
        <time>2020-01-14T18:27:11Z</time>
      </trkpt>
      <trkpt lat="56.887690264322" lon="14.839387341426">
        <ele>181.2</ele>
        <time>2020-01-14T18:27:21Z</time>
      </trkpt>
      <trkpt lat="56.887657239636" lon="14.839315508543">
        <ele>181</ele>
        <time>2020-01-14T18:28:56Z</time>
      </trkpt>
      <trkpt lat="56.88761248029" lon="14.839137728444">
        <ele>180.4</ele>
        <time>2020-01-14T18:29:07Z</time>
      </trkpt>
      <trkpt lat="56.887607283512" lon="14.838956260309">
        <ele>180.6</ele>
        <time>2020-01-14T18:29:10Z</time>
      </trkpt>
      <trkpt lat="56.887692611254" lon="14.838854839319">
        <ele>179.8</ele>
        <time>2020-01-14T18:29:13Z</time>
      </trkpt>
      <trkpt lat="56.88772982689" lon="14.838923067985">
        <ele>180</ele>
        <time>2020-01-14T18:29:15Z</time>
      </trkpt>
      <trkpt lat="56.887809790216" lon="14.839250884094">
        <ele>180.2</ele>
        <time>2020-01-14T18:29:20Z</time>
      </trkpt>
      <trkpt lat="56.887938703838" lon="14.839476189566">
        <ele>181.6</ele>
        <time>2020-01-14T18:29:25Z</time>
      </trkpt>
      <trkpt lat="56.888116819213" lon="14.839663776488">
        <ele>181.8</ele>
        <time>2020-01-14T18:29:31Z</time>
      </trkpt>
      <trkpt lat="56.88831404532" lon="14.839840802216">
        <ele>180.6</ele>
        <time>2020-01-14T18:29:37Z</time>
      </trkpt>
      <trkpt lat="56.88848000694" lon="14.839970805485">
        <ele>180.6</ele>
        <time>2020-01-14T18:29:42Z</time>
      </trkpt>
      <trkpt lat="56.888547648873" lon="14.840055295037">
        <ele>180.4</ele>
        <time>2020-01-14T18:29:45Z</time>
      </trkpt>
      <trkpt lat="56.888614368797" lon="14.840129726309">
        <ele>180.2</ele>
        <time>2020-01-14T18:29:47Z</time>
      </trkpt>
      <trkpt lat="56.888804805565" lon="14.840253359334">
        <ele>179.6</ele>
        <time>2020-01-14T18:29:52Z</time>
      </trkpt>
      <trkpt lat="56.888839422812" lon="14.840277750663">
        <ele>179.4</ele>
        <time>2020-01-14T18:29:53Z</time>
      </trkpt>
      <trkpt lat="56.888946292037" lon="14.840365509156">
        <ele>178.2</ele>
        <time>2020-01-14T18:29:56Z</time>
      </trkpt>
      <trkpt lat="56.889082162636" lon="14.840577822683">
        <ele>178.2</ele>
        <time>2020-01-14T18:30:01Z</time>
      </trkpt>
      <trkpt lat="56.889076965858" lon="14.840675471818">
        <ele>178.2</ele>
        <time>2020-01-14T18:30:03Z</time>
      </trkpt>
      <trkpt lat="56.888897677017" lon="14.840814276082">
        <ele>178.4</ele>
        <time>2020-01-14T18:30:10Z</time>
      </trkpt>
      <trkpt lat="56.888722327669" lon="14.840922654049">
        <ele>178.8</ele>
        <time>2020-01-14T18:30:17Z</time>
      </trkpt>
      <trkpt lat="56.888677903599" lon="14.840955092002">
        <ele>179.6</ele>
        <time>2020-01-14T18:30:19Z</time>
      </trkpt>
      <trkpt lat="56.888611016037" lon="14.841023823582">
        <ele>181</ele>
        <time>2020-01-14T18:30:22Z</time>
      </trkpt>
      <trkpt lat="56.888512528712" lon="14.841091549334">
        <ele>182.4</ele>
        <time>2020-01-14T18:30:25Z</time>
      </trkpt>
      <trkpt lat="56.88831069256" lon="14.841136643956">
        <ele>181.8</ele>
        <time>2020-01-14T18:30:31Z</time>
      </trkpt>
      <trkpt lat="56.888186305164" lon="14.840956349287">
        <ele>181.2</ele>
        <time>2020-01-14T18:30:36Z</time>
      </trkpt>
      <trkpt lat="56.888128889149" lon="14.840823412353">
        <ele>180.2</ele>
        <time>2020-01-14T18:30:39Z</time>
      </trkpt>
      <trkpt lat="56.888067785098" lon="14.84046324211">
        <ele>179.8</ele>
        <time>2020-01-14T18:30:45Z</time>
      </trkpt>
      <trkpt lat="56.888019421535" lon="14.840198541708">
        <ele>179.6</ele>
        <time>2020-01-14T18:30:49Z</time>
      </trkpt>
      <trkpt lat="56.887981200071" lon="14.84004833806">
        <ele>178.8</ele>
        <time>2020-01-14T18:30:51Z</time>
      </trkpt>
      <trkpt lat="56.887872822104" lon="14.839763269641">
        <ele>178.6</ele>
        <time>2020-01-14T18:30:55Z</time>
      </trkpt>
      <trkpt lat="56.887772993675" lon="14.83956218786">
        <ele>180.4</ele>
        <time>2020-01-14T18:30:59Z</time>
      </trkpt>
      <trkpt lat="56.88770468119" lon="14.839432100772">
        <ele>178.8</ele>
        <time>2020-01-14T18:31:02Z</time>
      </trkpt>
      <trkpt lat="56.887661011491" lon="14.839322633158">
        <ele>179</ele>
        <time>2020-01-14T18:31:08Z</time>
      </trkpt>
      <trkpt lat="56.887661849681" lon="14.839319028941">
        <ele>178.6</ele>
        <time>2020-01-14T18:32:13Z</time>
      </trkpt>
      <trkpt lat="56.887615916869" lon="14.839208723137">
        <ele>178.8</ele>
        <time>2020-01-14T18:33:06Z</time>
      </trkpt>
      <trkpt lat="56.887579623242" lon="14.839086682673">
        <ele>178</ele>
        <time>2020-01-14T18:33:08Z</time>
      </trkpt>
      <trkpt lat="56.887581048165" lon="14.839020968577">
        <ele>177.6</ele>
        <time>2020-01-14T18:33:09Z</time>
      </trkpt>
      <trkpt lat="56.887595129757" lon="14.838960451259">
        <ele>177.8</ele>
        <time>2020-01-14T18:33:10Z</time>
      </trkpt>
      <trkpt lat="56.887648438641" lon="14.838884008331">
        <ele>177.6</ele>
        <time>2020-01-14T18:33:12Z</time>
      </trkpt>
      <trkpt lat="56.887699819688" lon="14.838917284474">
        <ele>178</ele>
        <time>2020-01-14T18:33:14Z</time>
      </trkpt>
      <trkpt lat="56.887751787468" lon="14.839162287411">
        <ele>178.8</ele>
        <time>2020-01-14T18:33:18Z</time>
      </trkpt>
      <trkpt lat="56.88787315738" lon="14.839421120483">
        <ele>179</ele>
        <time>2020-01-14T18:33:23Z</time>
      </trkpt>
      <trkpt lat="56.888025959417" lon="14.839609210319">
        <ele>179.4</ele>
        <time>2020-01-14T18:33:28Z</time>
      </trkpt>
      <trkpt lat="56.88821430071" lon="14.839766622401">
        <ele>177.6</ele>
        <time>2020-01-14T18:33:34Z</time>
      </trkpt>
      <trkpt lat="56.888399875976" lon="14.839940127731">
        <ele>177</ele>
        <time>2020-01-14T18:33:41Z</time>
      </trkpt>
      <trkpt lat="56.888493082704" lon="14.840031238984">
        <ele>176.6</ele>
        <time>2020-01-14T18:33:44Z</time>
      </trkpt>
      <trkpt lat="56.888662145627" lon="14.840178508967">
        <ele>176.6</ele>
        <time>2020-01-14T18:33:49Z</time>
      </trkpt>
      <trkpt lat="56.888859036458" lon="14.840315888308">
        <ele>176.2</ele>
        <time>2020-01-14T18:33:54Z</time>
      </trkpt>
      <trkpt lat="56.88905751985" lon="14.840518646469">
        <ele>176.6</ele>
        <time>2020-01-14T18:33:59Z</time>
      </trkpt>
      <trkpt lat="56.889081324446" lon="14.840620905649">
        <ele>176.4</ele>
        <time>2020-01-14T18:34:01Z</time>
      </trkpt>
      <trkpt lat="56.888900694501" lon="14.840821903611">
        <ele>175.6</ele>
        <time>2020-01-14T18:34:08Z</time>
      </trkpt>
      <trkpt lat="56.88875241869" lon="14.840937992926">
        <ele>177</ele>
        <time>2020-01-14T18:34:14Z</time>
      </trkpt>
      <trkpt lat="56.888715454511" lon="14.840966323748">
        <ele>178.2</ele>
        <time>2020-01-14T18:34:16Z</time>
      </trkpt>
      <trkpt lat="56.88866943788" lon="14.841017369519">
        <ele>179.2</ele>
        <time>2020-01-14T18:34:18Z</time>
      </trkpt>
      <trkpt lat="56.888617302462" lon="14.841055674802">
        <ele>180.4</ele>
        <time>2020-01-14T18:34:20Z</time>
      </trkpt>
      <trkpt lat="56.88855963499" lon="14.841084843814">
        <ele>181.4</ele>
        <time>2020-01-14T18:34:22Z</time>
      </trkpt>
      <trkpt lat="56.888411107722" lon="14.841154413584">
        <ele>182.4</ele>
        <time>2020-01-14T18:34:26Z</time>
      </trkpt>
      <trkpt lat="56.888285714498" lon="14.841096410836">
        <ele>181.4</ele>
        <time>2020-01-14T18:34:30Z</time>
      </trkpt>
      <trkpt lat="56.888132661004" lon="14.840827268027">
        <ele>182</ele>
        <time>2020-01-14T18:34:36Z</time>
      </trkpt>
      <trkpt lat="56.888111454797" lon="14.840770271107">
        <ele>180.4</ele>
        <time>2020-01-14T18:34:37Z</time>
      </trkpt>
      <trkpt lat="56.888028641625" lon="14.84044480193">
        <ele>180.2</ele>
        <time>2020-01-14T18:34:42Z</time>
      </trkpt>
      <trkpt lat="56.887954629448" lon="14.840107178998">
        <ele>179.4</ele>
        <time>2020-01-14T18:34:47Z</time>
      </trkpt>
      <trkpt lat="56.887874163208" lon="14.839802245476">
        <ele>180.8</ele>
        <time>2020-01-14T18:34:51Z</time>
      </trkpt>
      <trkpt lat="56.887736029496" lon="14.83951524922">
        <ele>181.2</ele>
        <time>2020-01-14T18:34:56Z</time>
      </trkpt>
      <trkpt lat="56.887710967615" lon="14.839464874001">
        <ele>181.8</ele>
        <time>2020-01-14T18:34:57Z</time>
      </trkpt>
      <trkpt lat="56.887667465554" lon="14.839308551566">
        <ele>181.2</ele>
        <time>2020-01-14T18:35:03Z</time>
      </trkpt>
      <trkpt lat="56.88769629929" lon="14.839293380327">
        <ele>181</ele>
        <time>2020-01-14T18:35:14Z</time>
      </trkpt>
      <trkpt lat="56.887741310093" lon="14.839271922663">
        <ele>181.2</ele>
        <time>2020-01-14T18:36:29Z</time>
      </trkpt>
      <trkpt lat="56.887615330136" lon="14.839136303521">
        <ele>181.2</ele>
        <time>2020-01-14T18:37:06Z</time>
      </trkpt>
      <trkpt lat="56.887581802536" lon="14.839008479546">
        <ele>179.4</ele>
        <time>2020-01-14T18:37:08Z</time>
      </trkpt>
      <trkpt lat="56.88758398183" lon="14.838943687459">
        <ele>180.2</ele>
        <time>2020-01-14T18:37:09Z</time>
      </trkpt>
      <trkpt lat="56.88762589133" lon="14.83886229921">
        <ele>178.8</ele>
        <time>2020-01-14T18:37:11Z</time>
      </trkpt>
      <trkpt lat="56.887702082801" lon="14.838890378575">
        <ele>181.4</ele>
        <time>2020-01-14T18:37:14Z</time>
      </trkpt>
      <trkpt lat="56.887729910709" lon="14.83908274318">
        <ele>179.6</ele>
        <time>2020-01-14T18:37:17Z</time>
      </trkpt>
      <trkpt lat="56.887768718906" lon="14.839205286558">
        <ele>180.4</ele>
        <time>2020-01-14T18:37:19Z</time>
      </trkpt>
      <trkpt lat="56.887841222341" lon="14.839382982838">
        <ele>180.6</ele>
        <time>2020-01-14T18:37:22Z</time>
      </trkpt>
      <trkpt lat="56.887873911751" lon="14.839419276465">
        <ele>180.6</ele>
        <time>2020-01-14T18:37:23Z</time>
      </trkpt>
      <trkpt lat="56.887903583677" lon="14.839464454906">
        <ele>178.8</ele>
        <time>2020-01-14T18:37:24Z</time>
      </trkpt>
      <trkpt lat="56.887959910045" lon="14.839543328585">
        <ele>177.4</ele>
        <time>2020-01-14T18:37:26Z</time>
      </trkpt>
      <trkpt lat="56.888134924117" lon="14.839703255237">
        <ele>177.6</ele>
        <time>2020-01-14T18:37:32Z</time>
      </trkpt>
      <trkpt lat="56.888304909049" lon="14.83985639255">
        <ele>177.2</ele>
        <time>2020-01-14T18:37:37Z</time>
      </trkpt>
      <trkpt lat="56.888501380785" lon="14.840064515127">
        <ele>176.2</ele>
        <time>2020-01-14T18:37:43Z</time>
      </trkpt>
      <trkpt lat="56.888696679055" lon="14.840220502286">
        <ele>177.2</ele>
        <time>2020-01-14T18:37:48Z</time>
      </trkpt>
      <trkpt lat="56.888887451099" lon="14.840358635998">
        <ele>177</ele>
        <time>2020-01-14T18:37:53Z</time>
      </trkpt>
      <trkpt lat="56.889022232051" lon="14.840611685559">
        <ele>176.2</ele>
        <time>2020-01-14T18:37:58Z</time>
      </trkpt>
      <trkpt lat="56.88887060348" lon="14.840778904464">
        <ele>176.2</ele>
        <time>2020-01-14T18:38:05Z</time>
      </trkpt>
      <trkpt lat="56.888711598837" lon="14.84089239539">
        <ele>177.2</ele>
        <time>2020-01-14T18:38:12Z</time>
      </trkpt>
      <trkpt lat="56.888678825608" lon="14.84092257023">
        <ele>178.6</ele>
        <time>2020-01-14T18:38:14Z</time>
      </trkpt>
      <trkpt lat="56.888642112886" lon="14.840945871912">
        <ele>180</ele>
        <time>2020-01-14T18:38:16Z</time>
      </trkpt>
      <trkpt lat="56.888593581685" lon="14.840969173594">
        <ele>181.2</ele>
        <time>2020-01-14T18:38:18Z</time>
      </trkpt>
      <trkpt lat="56.888433822671" lon="14.841049891291">
        <ele>182.2</ele>
        <time>2020-01-14T18:38:23Z</time>
      </trkpt>
      <trkpt lat="56.888264759748" lon="14.840980153883">
        <ele>182.4</ele>
        <time>2020-01-14T18:38:29Z</time>
      </trkpt>
      <trkpt lat="56.888192088675" lon="14.840838248316">
        <ele>180.8</ele>
        <time>2020-01-14T18:38:32Z</time>
      </trkpt>
      <trkpt lat="56.888117741222" lon="14.840614870681">
        <ele>179.8</ele>
        <time>2020-01-14T18:38:36Z</time>
      </trkpt>
      <trkpt lat="56.888015314404" lon="14.840270290772">
        <ele>179.4</ele>
        <time>2020-01-14T18:38:41Z</time>
      </trkpt>
      <trkpt lat="56.887955216181" lon="14.839994190986">
        <ele>178.8</ele>
        <time>2020-01-14T18:38:45Z</time>
      </trkpt>
      <trkpt lat="56.887895872329" lon="14.839805598236">
        <ele>177.8</ele>
        <time>2020-01-14T18:38:48Z</time>
      </trkpt>
      <trkpt lat="56.887766874888" lon="14.839534359952">
        <ele>178</ele>
        <time>2020-01-14T18:38:53Z</time>
      </trkpt>
      <trkpt lat="56.887652126677" lon="14.839329925411">
        <ele>179</ele>
        <time>2020-01-14T18:39:00Z</time>
      </trkpt>
      <trkpt lat="56.88766277169" lon="14.839306791367">
        <ele>178.8</ele>
        <time>2020-01-14T18:39:02Z</time>
      </trkpt>
      <trkpt lat="56.887660676215" lon="14.839275694518">
        <ele>178.8</ele>
        <time>2020-01-14T18:39:05Z</time>
      </trkpt>
      <trkpt lat="56.88774742888" lon="14.839361776631">
        <ele>178.6</ele>
        <time>2020-01-14T18:39:48Z</time>
      </trkpt>
      <trkpt lat="56.887727647596" lon="14.83935850769">
        <ele>178.8</ele>
        <time>2020-01-14T18:39:53Z</time>
      </trkpt>
      <trkpt lat="56.887727060863" lon="14.839318693665">
        <ele>179</ele>
        <time>2020-01-14T18:39:56Z</time>
      </trkpt>
      <trkpt lat="56.88776670725" lon="14.839331015058">
        <ele>179.2</ele>
        <time>2020-01-14T18:40:22Z</time>
      </trkpt>
      <trkpt lat="56.887768299811" lon="14.83934593484">
        <ele>181.2</ele>
        <time>2020-01-14T18:40:23Z</time>
      </trkpt>
      <trkpt lat="56.887770562924" lon="14.839366973409">
        <ele>181.4</ele>
        <time>2020-01-14T18:40:24Z</time>
      </trkpt>
      <trkpt lat="56.887793948425" lon="14.839463029983">
        <ele>181.4</ele>
        <time>2020-01-14T18:40:29Z</time>
      </trkpt>
      <trkpt lat="56.887819261763" lon="14.83955632053">
        <ele>181.4</ele>
        <time>2020-01-14T18:40:33Z</time>
      </trkpt>
      <trkpt lat="56.887716332031" lon="14.839408296176">
        <ele>181.4</ele>
        <time>2020-01-14T18:40:46Z</time>
      </trkpt>
      <trkpt lat="56.887691521607" lon="14.839371248178">
        <ele>181.6</ele>
        <time>2020-01-14T18:40:49Z</time>
      </trkpt>
      <trkpt lat="56.887666459726" lon="14.839261026193">
        <ele>178.8</ele>
        <time>2020-01-14T18:41:03Z</time>
      </trkpt>
      <trkpt lat="56.887648606279" lon="14.83921936815">
        <ele>180</ele>
        <time>2020-01-14T18:41:04Z</time>
      </trkpt>
      <trkpt lat="56.887577024853" lon="14.839000349103">
        <ele>177.2</ele>
        <time>2020-01-14T18:41:08Z</time>
      </trkpt>
      <trkpt lat="56.887608624616" lon="14.838895994448">
        <ele>179</ele>
        <time>2020-01-14T18:41:10Z</time>
      </trkpt>
      <trkpt lat="56.88768288825" lon="14.838867747445">
        <ele>180</ele>
        <time>2020-01-14T18:41:12Z</time>
      </trkpt>
      <trkpt lat="56.887729994528" lon="14.838940502337">
        <ele>179.2</ele>
        <time>2020-01-14T18:41:14Z</time>
      </trkpt>
      <trkpt lat="56.887744662853" lon="14.839076792031">
        <ele>179.2</ele>
        <time>2020-01-14T18:41:16Z</time>
      </trkpt>
      <trkpt lat="56.887776430254" lon="14.839187014016">
        <ele>179.6</ele>
        <time>2020-01-14T18:41:18Z</time>
      </trkpt>
      <trkpt lat="56.887905595333" lon="14.839420701388">
        <ele>180.2</ele>
        <time>2020-01-14T18:41:23Z</time>
      </trkpt>
      <trkpt lat="56.888085051812" lon="14.839644665756">
        <ele>179.8</ele>
        <time>2020-01-14T18:41:29Z</time>
      </trkpt>
      <trkpt lat="56.888173145581" lon="14.839730999326">
        <ele>179</ele>
        <time>2020-01-14T18:41:32Z</time>
      </trkpt>
      <trkpt lat="56.888326115256" lon="14.839912299823">
        <ele>178.8</ele>
        <time>2020-01-14T18:41:37Z</time>
      </trkpt>
      <trkpt lat="56.888502218975" lon="14.840078429081">
        <ele>178.2</ele>
        <time>2020-01-14T18:41:43Z</time>
      </trkpt>
      <trkpt lat="56.888685698766" lon="14.840228381272">
        <ele>178.8</ele>
        <time>2020-01-14T18:41:48Z</time>
      </trkpt>
      <trkpt lat="56.888876219353" lon="14.840401048412">
        <ele>178</ele>
        <time>2020-01-14T18:41:53Z</time>
      </trkpt>
      <trkpt lat="56.888908992582" lon="14.84045821297">
        <ele>177.8</ele>
        <time>2020-01-14T18:41:54Z</time>
      </trkpt>
      <trkpt lat="56.88899046465" lon="14.840569524602">
        <ele>177.8</ele>
        <time>2020-01-14T18:41:56Z</time>
      </trkpt>
      <trkpt lat="56.889004965337" lon="14.840665162081">
        <ele>178</ele>
        <time>2020-01-14T18:41:58Z</time>
      </trkpt>
      <trkpt lat="56.888841685925" lon="14.840878229979">
        <ele>177.6</ele>
        <time>2020-01-14T18:42:06Z</time>
      </trkpt>
      <trkpt lat="56.888749736482" lon="14.840940591315">
        <ele>179</ele>
        <time>2020-01-14T18:42:10Z</time>
      </trkpt>
      <trkpt lat="56.888727440628" lon="14.840955762554">
        <ele>180</ele>
        <time>2020-01-14T18:42:11Z</time>
      </trkpt>
      <trkpt lat="56.88869625996" lon="14.840994822208">
        <ele>181.6</ele>
        <time>2020-01-14T18:42:13Z</time>
      </trkpt>
      <trkpt lat="56.888637670479" lon="14.841035642061">
        <ele>182.8</ele>
        <time>2020-01-14T18:42:16Z</time>
      </trkpt>
      <trkpt lat="56.88853951843" lon="14.84107176805">
        <ele>184</ele>
        <time>2020-01-14T18:42:19Z</time>
      </trkpt>
      <trkpt lat="56.888335670622" lon="14.841056596811">
        <ele>183.4</ele>
        <time>2020-01-14T18:42:25Z</time>
      </trkpt>
      <trkpt lat="56.888239697867" lon="14.8409502305">
        <ele>183</ele>
        <time>2020-01-14T18:42:29Z</time>
      </trkpt>
      <trkpt lat="56.88812880533" lon="14.840661976959">
        <ele>182.6</ele>
        <time>2020-01-14T18:42:34Z</time>
      </trkpt>
      <trkpt lat="56.888046411253" lon="14.840385709535">
        <ele>181.6</ele>
        <time>2020-01-14T18:42:38Z</time>
      </trkpt>
      <trkpt lat="56.887975081284" lon="14.840088152085">
        <ele>180.4</ele>
        <time>2020-01-14T18:42:42Z</time>
      </trkpt>
      <trkpt lat="56.887937027458" lon="14.839922441922">
        <ele>178.8</ele>
        <time>2020-01-14T18:42:44Z</time>
      </trkpt>
      <trkpt lat="56.887897883985" lon="14.839777686509">
        <ele>177.8</ele>
        <time>2020-01-14T18:42:46Z</time>
      </trkpt>
      <trkpt lat="56.887841054703" lon="14.839631338535">
        <ele>178</ele>
        <time>2020-01-14T18:42:48Z</time>
      </trkpt>
      <trkpt lat="56.88771054852" lon="14.839387257607">
        <ele>178.6</ele>
        <time>2020-01-14T18:42:53Z</time>
      </trkpt>
      <trkpt lat="56.887678110567" lon="14.839284327875">
        <ele>178.8</ele>
        <time>2020-01-14T18:43:00Z</time>
      </trkpt>
      <trkpt lat="56.887726055035" lon="14.839308300109">
        <ele>180</ele>
        <time>2020-01-14T18:43:25Z</time>
      </trkpt>
      <trkpt lat="56.887736280953" lon="14.839334116361">
        <ele>181.2</ele>
        <time>2020-01-14T18:43:35Z</time>
      </trkpt>
      <trkpt lat="56.887688001209" lon="14.839329254859">
        <ele>181.4</ele>
        <time>2020-01-14T18:43:56Z</time>
      </trkpt>
      <trkpt lat="56.887699819688" lon="14.839390945643">
        <ele>181.2</ele>
        <time>2020-01-14T18:44:01Z</time>
      </trkpt>
      <trkpt lat="56.887728569605" lon="14.839479793783">
        <ele>180.2</ele>
        <time>2020-01-14T18:44:04Z</time>
      </trkpt>
      <trkpt lat="56.887825883464" lon="14.839646090679">
        <ele>180.6</ele>
        <time>2020-01-14T18:44:10Z</time>
      </trkpt>
      <trkpt lat="56.887720522981" lon="14.839459341947">
        <ele>181.2</ele>
        <time>2020-01-14T18:44:21Z</time>
      </trkpt>
      <trkpt lat="56.887714655651" lon="14.839423718872">
        <ele>181.2</ele>
        <time>2020-01-14T18:44:23Z</time>
      </trkpt>
      <trkpt lat="56.887712811633" lon="14.83940460814">
        <ele>181.2</ele>
        <time>2020-01-14T18:44:25Z</time>
      </trkpt>
      <trkpt lat="56.887710380882" lon="14.839383150476">
        <ele>181.2</ele>
        <time>2020-01-14T18:44:27Z</time>
      </trkpt>
      <trkpt lat="56.887666711183" lon="14.839318777484">
        <ele>181.4</ele>
        <time>2020-01-14T18:44:34Z</time>
      </trkpt>
      <trkpt lat="56.887594207748" lon="14.839054160901">
        <ele>179.8</ele>
        <time>2020-01-14T18:45:07Z</time>
      </trkpt>
      <trkpt lat="56.887578365957" lon="14.838980986914">
        <ele>176.8</ele>
        <time>2020-01-14T18:45:08Z</time>
      </trkpt>
      <trkpt lat="56.8875781145" lon="14.838920804872">
        <ele>178.2</ele>
        <time>2020-01-14T18:45:09Z</time>
      </trkpt>
      <trkpt lat="56.887597811965" lon="14.83887571025">
        <ele>178.2</ele>
        <time>2020-01-14T18:45:10Z</time>
      </trkpt>
      <trkpt lat="56.887656401446" lon="14.838814690018">
        <ele>175.4</ele>
        <time>2020-01-14T18:45:12Z</time>
      </trkpt>
      <trkpt lat="56.887709291235" lon="14.838886439082">
        <ele>176.8</ele>
        <time>2020-01-14T18:45:14Z</time>
      </trkpt>
      <trkpt lat="56.887754721133" lon="14.839085676845">
        <ele>178</ele>
        <time>2020-01-14T18:45:17Z</time>
      </trkpt>
      <trkpt lat="56.887800989221" lon="14.839227498593">
        <ele>179.2</ele>
        <time>2020-01-14T18:45:19Z</time>
      </trkpt>
      <trkpt lat="56.887828900948" lon="14.839285417522">
        <ele>179.8</ele>
        <time>2020-01-14T18:45:20Z</time>
      </trkpt>
      <trkpt lat="56.887882461289" lon="14.839398824629">
        <ele>179.4</ele>
        <time>2020-01-14T18:45:22Z</time>
      </trkpt>
      <trkpt lat="56.887952450154" lon="14.839501586723">
        <ele>177.6</ele>
        <time>2020-01-14T18:45:24Z</time>
      </trkpt>
      <trkpt lat="56.887990001066" lon="14.839539724368">
        <ele>178</ele>
        <time>2020-01-14T18:45:25Z</time>
      </trkpt>
      <trkpt lat="56.888100642146" lon="14.839641312996">
        <ele>176.4</ele>
        <time>2020-01-14T18:45:28Z</time>
      </trkpt>
      <trkpt lat="56.888186053707" lon="14.83974491328">
        <ele>177.4</ele>
        <time>2020-01-14T18:45:31Z</time>
      </trkpt>
      <trkpt lat="56.888344890712" lon="14.839959406101">
        <ele>176.8</ele>
        <time>2020-01-14T18:45:38Z</time>
      </trkpt>
      <trkpt lat="56.888542955009" lon="14.840164762651">
        <ele>176</ele>
        <time>2020-01-14T18:45:44Z</time>
      </trkpt>
      <trkpt lat="56.888721908574" lon="14.840278337396">
        <ele>176.2</ele>
        <time>2020-01-14T18:45:48Z</time>
      </trkpt>
      <trkpt lat="56.888936736671" lon="14.840493165493">
        <ele>176.2</ele>
        <time>2020-01-14T18:45:53Z</time>
      </trkpt>
      <trkpt lat="56.888985854605" lon="14.840606991695">
        <ele>176</ele>
        <time>2020-01-14T18:45:55Z</time>
      </trkpt>
      <trkpt lat="56.888991638116" lon="14.840687625573">
        <ele>175.6</ele>
        <time>2020-01-14T18:45:57Z</time>
      </trkpt>
      <trkpt lat="56.888828861618" lon="14.840860041256">
        <ele>175.6</ele>
        <time>2020-01-14T18:46:05Z</time>
      </trkpt>
      <trkpt lat="56.888699947996" lon="14.84092340842">
        <ele>177.2</ele>
        <time>2020-01-14T18:46:09Z</time>
      </trkpt>
      <trkpt lat="56.888677987418" lon="14.840944446989">
        <ele>178.4</ele>
        <time>2020-01-14T18:46:10Z</time>
      </trkpt>
      <trkpt lat="56.888630797321" lon="14.840990631258">
        <ele>180</ele>
        <time>2020-01-14T18:46:12Z</time>
      </trkpt>
      <trkpt lat="56.888436588698" lon="14.841096997569">
        <ele>179.2</ele>
        <time>2020-01-14T18:46:18Z</time>
      </trkpt>
      <trkpt lat="56.888263837739" lon="14.841032792215">
        <ele>179</ele>
        <time>2020-01-14T18:46:23Z</time>
      </trkpt>
      <trkpt lat="56.888208181923" lon="14.840964144454">
        <ele>178.8</ele>
        <time>2020-01-14T18:46:25Z</time>
      </trkpt>
      <trkpt lat="56.888077256645" lon="14.840627108255">
        <ele>177.6</ele>
        <time>2020-01-14T18:46:31Z</time>
      </trkpt>
      <trkpt lat="56.888011794006" lon="14.84035427741">
        <ele>176.4</ele>
        <time>2020-01-14T18:46:35Z</time>
      </trkpt>
      <trkpt lat="56.887945325539" lon="14.839990670588">
        <ele>176</ele>
        <time>2020-01-14T18:46:40Z</time>
      </trkpt>
      <trkpt lat="56.887841054703" lon="14.839656987149">
        <ele>175.6</ele>
        <time>2020-01-14T18:46:45Z</time>
      </trkpt>
      <trkpt lat="56.887657574912" lon="14.839314754172">
        <ele>176.2</ele>
        <time>2020-01-14T18:46:55Z</time>
      </trkpt>
      <trkpt lat="56.887698227127" lon="14.839261948202">
        <ele>176</ele>
        <time>2020-01-14T18:47:13Z</time>
      </trkpt>
      <trkpt lat="56.887717421678" lon="14.839304695892">
        <ele>176</ele>
        <time>2020-01-14T18:47:16Z</time>
      </trkpt>
      <trkpt lat="56.887733095831" lon="14.839350544885">
        <ele>176</ele>
        <time>2020-01-14T18:47:19Z</time>
      </trkpt>
      <trkpt lat="56.887672578513" lon="14.83940041719">
        <ele>176</ele>
        <time>2020-01-14T18:47:44Z</time>
      </trkpt>
      <trkpt lat="56.887684480811" lon="14.839437800464">
        <ele>176.2</ele>
        <time>2020-01-14T18:47:46Z</time>
      </trkpt>
      <trkpt lat="56.887694874367" lon="14.839464203449">
        <ele>176.2</ele>
        <time>2020-01-14T18:47:48Z</time>
      </trkpt>
      <trkpt lat="56.887706525208" lon="14.839491528443">
        <ele>176.2</ele>
        <time>2020-01-14T18:47:50Z</time>
      </trkpt>
      <trkpt lat="56.887724881569" lon="14.839501335266">
        <ele>176.2</ele>
        <time>2020-01-14T18:47:52Z</time>
      </trkpt>
      <trkpt lat="56.887748853803" lon="14.839517093238">
        <ele>176.2</ele>
        <time>2020-01-14T18:47:54Z</time>
      </trkpt>
      <trkpt lat="56.887748350889" lon="14.839511980279">
        <ele>176.2</ele>
        <time>2020-01-14T18:47:58Z</time>
      </trkpt>
      <trkpt lat="56.887734269297" lon="14.83949345628">
        <ele>176.2</ele>
        <time>2020-01-14T18:48:01Z</time>
      </trkpt>
      <trkpt lat="56.887720271524" lon="14.83948088343">
        <ele>176.2</ele>
        <time>2020-01-14T18:48:04Z</time>
      </trkpt>
      <trkpt lat="56.88774491431" lon="14.839539053816">
        <ele>176.2</ele>
        <time>2020-01-14T18:48:07Z</time>
      </trkpt>
      <trkpt lat="56.887785901801" lon="14.839607785396">
        <ele>176</ele>
        <time>2020-01-14T18:48:11Z</time>
      </trkpt>
      <trkpt lat="56.887780788842" lon="14.839543412404">
        <ele>175.6</ele>
        <time>2020-01-14T18:48:14Z</time>
      </trkpt>
      <trkpt lat="56.887736867686" lon="14.839451211504">
        <ele>175.8</ele>
        <time>2020-01-14T18:48:18Z</time>
      </trkpt>
      <trkpt lat="56.887671237409" lon="14.839371248178">
        <ele>176</ele>
        <time>2020-01-14T18:48:25Z</time>
      </trkpt>
      <trkpt lat="56.887664867165" lon="14.839343504089">
        <ele>176</ele>
        <time>2020-01-14T18:48:27Z</time>
      </trkpt>
      <trkpt lat="56.887546682375" lon="14.839042929155">
        <ele>175.8</ele>
        <time>2020-01-14T18:49:07Z</time>
      </trkpt>
      <trkpt lat="56.887556656836" lon="14.838945699115">
        <ele>175.6</ele>
        <time>2020-01-14T18:49:09Z</time>
      </trkpt>
      <trkpt lat="56.887589094789" lon="14.838914183171">
        <ele>175.4</ele>
        <time>2020-01-14T18:49:10Z</time>
      </trkpt>
      <trkpt lat="56.887626394244" lon="14.838901777959">
        <ele>175</ele>
        <time>2020-01-14T18:49:11Z</time>
      </trkpt>
      <trkpt lat="56.88768791739" lon="14.838954919205">
        <ele>174.4</ele>
        <time>2020-01-14T18:49:13Z</time>
      </trkpt>
      <trkpt lat="56.887732676736" lon="14.839124904137">
        <ele>175</ele>
        <time>2020-01-14T18:49:16Z</time>
      </trkpt>
      <trkpt lat="56.887757068065" lon="14.839182655428">
        <ele>175.4</ele>
        <time>2020-01-14T18:49:17Z</time>
      </trkpt>
      <trkpt lat="56.887774921512" lon="14.839242250737">
        <ele>175.6</ele>
        <time>2020-01-14T18:49:18Z</time>
      </trkpt>
      <trkpt lat="56.887815573727" lon="14.839344929012">
        <ele>175.8</ele>
        <time>2020-01-14T18:49:20Z</time>
      </trkpt>
      <trkpt lat="56.88790081765" lon="14.839491696081">
        <ele>175.8</ele>
        <time>2020-01-14T18:49:23Z</time>
      </trkpt>
      <trkpt lat="56.888051943307" lon="14.839674840596">
        <ele>175.2</ele>
        <time>2020-01-14T18:49:28Z</time>
      </trkpt>
      <trkpt lat="56.888223101705" lon="14.839864187717">
        <ele>174.6</ele>
        <time>2020-01-14T18:49:34Z</time>
      </trkpt>
      <trkpt lat="56.888273728381" lon="14.839932416383">
        <ele>174.4</ele>
        <time>2020-01-14T18:49:36Z</time>
      </trkpt>
      <trkpt lat="56.888466763538" lon="14.840122517875">
        <ele>174.6</ele>
        <time>2020-01-14T18:49:42Z</time>
      </trkpt>
      <trkpt lat="56.888648566949" lon="14.840219245001">
        <ele>174.4</ele>
        <time>2020-01-14T18:49:46Z</time>
      </trkpt>
      <trkpt lat="56.888819892985" lon="14.840357881627">
        <ele>173.8</ele>
        <time>2020-01-14T18:49:50Z</time>
      </trkpt>
      <trkpt lat="56.888897928474" lon="14.840586288402">
        <ele>173.8</ele>
        <time>2020-01-14T18:49:54Z</time>
      </trkpt>
      <trkpt lat="56.88886641253" lon="14.840703551183">
        <ele>173.2</ele>
        <time>2020-01-14T18:49:57Z</time>
      </trkpt>
      <trkpt lat="56.888714616321" lon="14.840901028747">
        <ele>174.2</ele>
        <time>2020-01-14T18:50:07Z</time>
      </trkpt>
      <trkpt lat="56.88869123082" lon="14.840905387335">
        <ele>174.6</ele>
        <time>2020-01-14T18:50:08Z</time>
      </trkpt>
      <trkpt lat="56.888656613573" lon="14.840960624056">
        <ele>175.6</ele>
        <time>2020-01-14T18:50:10Z</time>
      </trkpt>
      <trkpt lat="56.888611099856" lon="14.841008568524">
        <ele>177</ele>
        <time>2020-01-14T18:50:12Z</time>
      </trkpt>
      <trkpt lat="56.888562820112" lon="14.841044191599">
        <ele>178</ele>
        <time>2020-01-14T18:50:14Z</time>
      </trkpt>
      <trkpt lat="56.888369617317" lon="14.841083083615">
        <ele>179</ele>
        <time>2020-01-14T18:50:20Z</time>
      </trkpt>
      <trkpt lat="56.88820172786" lon="14.840914272149">
        <ele>178.2</ele>
        <time>2020-01-14T18:50:25Z</time>
      </trkpt>
      <trkpt lat="56.88807348479" lon="14.840631047748">
        <ele>177.2</ele>
        <time>2020-01-14T18:50:30Z</time>
      </trkpt>
      <trkpt lat="56.888039119" lon="14.840498110814">
        <ele>176.8</ele>
        <time>2020-01-14T18:50:32Z</time>
      </trkpt>
      <trkpt lat="56.888010871997" lon="14.840364503328">
        <ele>176.8</ele>
        <time>2020-01-14T18:50:34Z</time>
      </trkpt>
      <trkpt lat="56.887933674698" lon="14.8400030758">
        <ele>176</ele>
        <time>2020-01-14T18:50:39Z</time>
      </trkpt>
      <trkpt lat="56.887902913125" lon="14.839867875753">
        <ele>175.8</ele>
        <time>2020-01-14T18:50:41Z</time>
      </trkpt>
      <trkpt lat="56.887784895973" lon="14.839556488168">
        <ele>174.8</ele>
        <time>2020-01-14T18:50:46Z</time>
      </trkpt>
      <trkpt lat="56.887696718385" lon="14.839393627851">
        <ele>177.4</ele>
        <time>2020-01-14T18:50:50Z</time>
      </trkpt>
      <trkpt lat="56.887669561029" lon="14.839359681156">
        <ele>179</ele>
        <time>2020-01-14T18:50:53Z</time>
      </trkpt>
      <trkpt lat="56.887658496921" lon="14.839352388903">
        <ele>178.8</ele>
        <time>2020-01-14T18:50:55Z</time>
      </trkpt>
      <trkpt lat="56.88767702092" lon="14.839389855996">
        <ele>181.2</ele>
        <time>2020-01-14T18:51:23Z</time>
      </trkpt>
      <trkpt lat="56.887688671761" lon="14.839371499635">
        <ele>181.4</ele>
        <time>2020-01-14T18:51:25Z</time>
      </trkpt>
      <trkpt lat="56.887698310946" lon="14.839369487979">
        <ele>181.4</ele>
        <time>2020-01-14T18:51:28Z</time>
      </trkpt>
      <trkpt lat="56.887782213765" lon="14.839557661634">
        <ele>181.6</ele>
        <time>2020-01-14T18:51:57Z</time>
      </trkpt>
      <trkpt lat="56.887858656693" lon="14.839738710674">
        <ele>181.2</ele>
        <time>2020-01-14T18:52:04Z</time>
      </trkpt>
      <trkpt lat="56.887884305307" lon="14.839787074237">
        <ele>180.8</ele>
        <time>2020-01-14T18:52:06Z</time>
      </trkpt>
      <trkpt lat="56.887847927861" lon="14.839697723183">
        <ele>180.6</ele>
        <time>2020-01-14T18:52:11Z</time>
      </trkpt>
      <trkpt lat="56.887716332031" lon="14.839449954219">
        <ele>181</ele>
        <time>2020-01-14T18:52:23Z</time>
      </trkpt>
      <trkpt lat="56.887702250439" lon="14.839418689732">
        <ele>181.4</ele>
        <time>2020-01-14T18:52:26Z</time>
      </trkpt>
      <trkpt lat="56.887698646222" lon="14.839390694186">
        <ele>181.2</ele>
        <time>2020-01-14T18:52:29Z</time>
      </trkpt>
      <trkpt lat="56.887595465033" lon="14.839169831121">
        <ele>180.4</ele>
        <time>2020-01-14T18:53:05Z</time>
      </trkpt>
      <trkpt lat="56.887550621868" lon="14.838958355784">
        <ele>179.8</ele>
        <time>2020-01-14T18:53:08Z</time>
      </trkpt>
      <trkpt lat="56.887575432292" lon="14.838907645289">
        <ele>181</ele>
        <time>2020-01-14T18:53:09Z</time>
      </trkpt>
      <trkpt lat="56.887600997087" lon="14.838859449364">
        <ele>182.2</ele>
        <time>2020-01-14T18:53:10Z</time>
      </trkpt>
      <trkpt lat="56.88764014056" lon="14.838841512098">
        <ele>180.2</ele>
        <time>2020-01-14T18:53:11Z</time>
      </trkpt>
      <trkpt lat="56.887695042005" lon="14.838916362465">
        <ele>182.4</ele>
        <time>2020-01-14T18:53:13Z</time>
      </trkpt>
      <trkpt lat="56.887736783867" lon="14.839109732898">
        <ele>182.6</ele>
        <time>2020-01-14T18:53:16Z</time>
      </trkpt>
      <trkpt lat="56.887796211538" lon="14.839275694518">
        <ele>183.6</ele>
        <time>2020-01-14T18:53:19Z</time>
      </trkpt>
      <trkpt lat="56.887923029685" lon="14.839512650831">
        <ele>183.4</ele>
        <time>2020-01-14T18:53:24Z</time>
      </trkpt>
      <trkpt lat="56.888083710708" lon="14.839702081771">
        <ele>182.6</ele>
        <time>2020-01-14T18:53:29Z</time>
      </trkpt>
      <trkpt lat="56.888122015991" lon="14.839744158909">
        <ele>182.4</ele>
        <time>2020-01-14T18:53:30Z</time>
      </trkpt>
      <trkpt lat="56.888271632906" lon="14.839936439695">
        <ele>181.8</ele>
        <time>2020-01-14T18:53:35Z</time>
      </trkpt>
      <trkpt lat="56.888466679719" lon="14.840103910057">
        <ele>181.4</ele>
        <time>2020-01-14T18:53:40Z</time>
      </trkpt>
      <trkpt lat="56.888658122315" lon="14.840223268313">
        <ele>181.6</ele>
        <time>2020-01-14T18:53:44Z</time>
      </trkpt>
      <trkpt lat="56.888819222433" lon="14.840358803636">
        <ele>181.2</ele>
        <time>2020-01-14T18:53:48Z</time>
      </trkpt>
      <trkpt lat="56.888950902082" lon="14.840530884043">
        <ele>181</ele>
        <time>2020-01-14T18:53:51Z</time>
      </trkpt>
      <trkpt lat="56.888870687299" lon="14.840679998044">
        <ele>180.8</ele>
        <time>2020-01-14T18:53:54Z</time>
      </trkpt>
      <trkpt lat="56.888738840012" lon="14.840861130903">
        <ele>181.6</ele>
        <time>2020-01-14T18:54:05Z</time>
      </trkpt>
      <trkpt lat="56.888688380974" lon="14.840888707354">
        <ele>182.8</ele>
        <time>2020-01-14T18:54:07Z</time>
      </trkpt>
      <trkpt lat="56.888653260813" lon="14.840926425904">
        <ele>184.2</ele>
        <time>2020-01-14T18:54:09Z</time>
      </trkpt>
      <trkpt lat="56.888617302462" lon="14.840960456418">
        <ele>185.4</ele>
        <time>2020-01-14T18:54:11Z</time>
      </trkpt>
      <trkpt lat="56.888420327812" lon="14.841065313987">
        <ele>186.4</ele>
        <time>2020-01-14T18:54:17Z</time>
      </trkpt>
      <trkpt lat="56.888245229921" lon="14.840931538863">
        <ele>185.6</ele>
        <time>2020-01-14T18:54:23Z</time>
      </trkpt>
      <trkpt lat="56.888116064842" lon="14.840677986388">
        <ele>184.6</ele>
        <time>2020-01-14T18:54:28Z</time>
      </trkpt>
      <trkpt lat="56.888068204193" lon="14.840534572079">
        <ele>184</ele>
        <time>2020-01-14T18:54:30Z</time>
      </trkpt>
      <trkpt lat="56.887995868396" lon="14.840161577529">
        <ele>183.2</ele>
        <time>2020-01-14T18:54:35Z</time>
      </trkpt>
      <trkpt lat="56.887978182587" lon="14.840082452393">
        <ele>182.8</ele>
        <time>2020-01-14T18:54:36Z</time>
      </trkpt>
      <trkpt lat="56.8878798629" lon="14.839733681534">
        <ele>181.8</ele>
        <time>2020-01-14T18:54:41Z</time>
      </trkpt>
      <trkpt lat="56.887739382256" lon="14.839456240644">
        <ele>183</ele>
        <time>2020-01-14T18:54:46Z</time>
      </trkpt>
      <trkpt lat="56.887703256267" lon="14.83941215185">
        <ele>181.2</ele>
        <time>2020-01-14T18:54:48Z</time>
      </trkpt>
      <trkpt lat="56.887690348141" lon="14.839396310059">
        <ele>181.2</ele>
        <time>2020-01-14T18:54:49Z</time>
      </trkpt>
      <trkpt lat="56.887642403673" lon="14.839342330623">
        <ele>179</ele>
        <time>2020-01-14T18:56:07Z</time>
      </trkpt>
      <trkpt lat="56.887664699527" lon="14.839406703615">
        <ele>180.2</ele>
        <time>2020-01-14T18:56:22Z</time>
      </trkpt>
      <trkpt lat="56.887676518006" lon="14.839428496555">
        <ele>179</ele>
        <time>2020-01-14T18:56:23Z</time>
      </trkpt>
      <trkpt lat="56.887794618977" lon="14.839616754029">
        <ele>179.2</ele>
        <time>2020-01-14T18:56:31Z</time>
      </trkpt>
      <trkpt lat="56.887688085028" lon="14.839411984212">
        <ele>181.2</ele>
        <time>2020-01-14T18:56:44Z</time>
      </trkpt>
      <trkpt lat="56.887683474983" lon="14.839387089969">
        <ele>181</ele>
        <time>2020-01-14T18:56:46Z</time>
      </trkpt>
      <trkpt lat="56.88767366816" lon="14.839357837138">
        <ele>181</ele>
        <time>2020-01-14T18:56:48Z</time>
      </trkpt>
      <trkpt lat="56.887670818314" lon="14.839341073338">
        <ele>179</ele>
        <time>2020-01-14T18:56:49Z</time>
      </trkpt>
      <trkpt lat="56.887614240489" lon="14.839228420602">
        <ele>178</ele>
        <time>2020-01-14T18:57:04Z</time>
      </trkpt>
      <trkpt lat="56.887589178608" lon="14.839165137257">
        <ele>178</ele>
        <time>2020-01-14T18:57:05Z</time>
      </trkpt>
      <trkpt lat="56.887547688203" lon="14.838971766824">
        <ele>178.2</ele>
        <time>2020-01-14T18:57:08Z</time>
      </trkpt>
      <trkpt lat="56.887650701754" lon="14.838900436855">
        <ele>177.4</ele>
        <time>2020-01-14T18:57:11Z</time>
      </trkpt>
      <trkpt lat="56.887702250439" lon="14.83906597938">
        <ele>177.8</ele>
        <time>2020-01-14T18:57:14Z</time>
      </trkpt>
      <trkpt lat="56.887736867686" lon="14.839182236333">
        <ele>178</ele>
        <time>2020-01-14T18:57:16Z</time>
      </trkpt>
      <trkpt lat="56.887845078015" lon="14.83944232669">
        <ele>179.2</ele>
        <time>2020-01-14T18:57:21Z</time>
      </trkpt>
      <trkpt lat="56.888004082658" lon="14.839648437611">
        <ele>178.2</ele>
        <time>2020-01-14T18:57:26Z</time>
      </trkpt>
      <trkpt lat="56.888037861715" lon="14.839681713754">
        <ele>178</ele>
        <time>2020-01-14T18:57:27Z</time>
      </trkpt>
      <trkpt lat="56.888212456692" lon="14.839890003969">
        <ele>177.2</ele>
        <time>2020-01-14T18:57:33Z</time>
      </trkpt>
      <trkpt lat="56.888364755815" lon="14.840034759382">
        <ele>177</ele>
        <time>2020-01-14T18:57:38Z</time>
      </trkpt>
      <trkpt lat="56.888533399643" lon="14.840150094326">
        <ele>176.8</ele>
        <time>2020-01-14T18:57:42Z</time>
      </trkpt>
      <trkpt lat="56.888712437027" lon="14.840272889161">
        <ele>176.2</ele>
        <time>2020-01-14T18:57:46Z</time>
      </trkpt>
      <trkpt lat="56.888898766664" lon="14.8404808441">
        <ele>175.8</ele>
        <time>2020-01-14T18:57:50Z</time>
      </trkpt>
      <trkpt lat="56.888822072279" lon="14.840543959807">
        <ele>176</ele>
        <time>2020-01-14T18:57:51Z</time>
      </trkpt>
      <trkpt lat="56.888733894691" lon="14.840831710434">
        <ele>176.8</ele>
        <time>2020-01-14T18:58:05Z</time>
      </trkpt>
      <trkpt lat="56.88868536349" lon="14.840861801455">
        <ele>178.2</ele>
        <time>2020-01-14T18:58:07Z</time>
      </trkpt>
      <trkpt lat="56.888653847546" lon="14.840906812258">
        <ele>179.6</ele>
        <time>2020-01-14T18:58:09Z</time>
      </trkpt>
      <trkpt lat="56.888602801775" lon="14.840944027894">
        <ele>180.8</ele>
        <time>2020-01-14T18:58:11Z</time>
      </trkpt>
      <trkpt lat="56.888408257876" lon="14.841038743364">
        <ele>181.2</ele>
        <time>2020-01-14T18:58:17Z</time>
      </trkpt>
      <trkpt lat="56.88821262433" lon="14.840927264094">
        <ele>179.8</ele>
        <time>2020-01-14T18:58:23Z</time>
      </trkpt>
      <trkpt lat="56.888145904406" lon="14.840839673239">
        <ele>179.4</ele>
        <time>2020-01-14T18:58:25Z</time>
      </trkpt>
      <trkpt lat="56.888048758185" lon="14.840500709203">
        <ele>179</ele>
        <time>2020-01-14T18:58:30Z</time>
      </trkpt>
      <trkpt lat="56.888003244468" lon="14.840140874236">
        <ele>178.8</ele>
        <time>2020-01-14T18:58:35Z</time>
      </trkpt>
      <trkpt lat="56.887972315257" lon="14.839984048887">
        <ele>178.2</ele>
        <time>2020-01-14T18:58:37Z</time>
      </trkpt>
      <trkpt lat="56.887882545108" lon="14.839716917734">
        <ele>179.4</ele>
        <time>2020-01-14T18:58:41Z</time>
      </trkpt>
      <trkpt lat="56.887830493509" lon="14.839599152039">
        <ele>180.4</ele>
        <time>2020-01-14T18:58:43Z</time>
      </trkpt>
      <trkpt lat="56.887728234329" lon="14.839424054148">
        <ele>180.2</ele>
        <time>2020-01-14T18:58:48Z</time>
      </trkpt>
      <trkpt lat="56.887720690619" lon="14.839416007524">
        <ele>180.4</ele>
        <time>2020-01-14T18:58:50Z</time>
      </trkpt>
      <trkpt lat="56.887663274604" lon="14.8393744333">
        <ele>179</ele>
        <time>2020-01-14T18:59:12Z</time>
      </trkpt>
      <trkpt lat="56.887747931794" lon="14.83930402534">
        <ele>178.6</ele>
        <time>2020-01-14T18:59:42Z</time>
      </trkpt>
      <trkpt lat="56.887765785241" lon="14.839286926264">
        <ele>178.6</ele>
        <time>2020-01-14T19:00:47Z</time>
      </trkpt>
      <trkpt lat="56.887771652571" lon="14.838996325791">
        <ele>178.4</ele>
        <time>2020-01-14T19:02:11Z</time>
      </trkpt>
      <trkpt lat="56.887772993675" lon="14.838947543133">
        <ele>177.6</ele>
        <time>2020-01-14T19:02:13Z</time>
      </trkpt>
      <trkpt lat="56.887781375575" lon="14.838580835008">
        <ele>177.2</ele>
        <time>2020-01-14T19:02:24Z</time>
      </trkpt>
      <trkpt lat="56.887790511846" lon="14.838226196819">
        <ele>177.2</ele>
        <time>2020-01-14T19:02:34Z</time>
      </trkpt>
      <trkpt lat="56.887826051102" lon="14.837879605254">
        <ele>177</ele>
        <time>2020-01-14T19:02:43Z</time>
      </trkpt>
      <trkpt lat="56.887856645037" lon="14.837524631789">
        <ele>177.2</ele>
        <time>2020-01-14T19:02:54Z</time>
      </trkpt>
      <trkpt lat="56.887873911751" lon="14.837229756547">
        <ele>176.6</ele>
        <time>2020-01-14T19:03:02Z</time>
      </trkpt>
      <trkpt lat="56.887934680526" lon="14.836896995117">
        <ele>176.2</ele>
        <time>2020-01-14T19:03:11Z</time>
      </trkpt>
      <trkpt lat="56.888025121227" lon="14.836580913668">
        <ele>175.8</ele>
        <time>2020-01-14T19:03:20Z</time>
      </trkpt>
      <trkpt lat="56.888036688249" lon="14.836550403552">
        <ele>175.4</ele>
        <time>2020-01-14T19:03:21Z</time>
      </trkpt>
      <trkpt lat="56.888125033475" lon="14.836248319876">
        <ele>174.8</ele>
        <time>2020-01-14T19:03:29Z</time>
      </trkpt>
      <trkpt lat="56.888157890523" lon="14.835911116039">
        <ele>175.8</ele>
        <time>2020-01-14T19:03:37Z</time>
      </trkpt>
      <trkpt lat="56.88818580225" lon="14.835550107606">
        <ele>176.2</ele>
        <time>2020-01-14T19:03:46Z</time>
      </trkpt>
      <trkpt lat="56.888219665126" lon="14.83518851244">
        <ele>176.6</ele>
        <time>2020-01-14T19:03:54Z</time>
      </trkpt>
      <trkpt lat="56.888263921558" lon="14.834862707987">
        <ele>176.2</ele>
        <time>2020-01-14T19:04:02Z</time>
      </trkpt>
      <trkpt lat="56.888286217412" lon="14.834659866007">
        <ele>175.6</ele>
        <time>2020-01-14T19:04:07Z</time>
      </trkpt>
      <trkpt lat="56.888291581828" lon="14.834428441748">
        <ele>174.2</ele>
        <time>2020-01-14T19:04:12Z</time>
      </trkpt>
      <trkpt lat="56.888269118336" lon="14.834063326184">
        <ele>173.4</ele>
        <time>2020-01-14T19:04:21Z</time>
      </trkpt>
      <trkpt lat="56.888260317341" lon="14.833715142058">
        <ele>173.6</ele>
        <time>2020-01-14T19:04:30Z</time>
      </trkpt>
      <trkpt lat="56.888239362591" lon="14.833507857671">
        <ele>173.2</ele>
        <time>2020-01-14T19:04:35Z</time>
      </trkpt>
      <trkpt lat="56.888235926012" lon="14.833250700979">
        <ele>172</ele>
        <time>2020-01-14T19:04:41Z</time>
      </trkpt>
      <trkpt lat="56.888225951551" lon="14.833088678852">
        <ele>171.8</ele>
        <time>2020-01-14T19:04:45Z</time>
      </trkpt>
      <trkpt lat="56.888199716204" lon="14.832731609912">
        <ele>170.8</ele>
        <time>2020-01-14T19:04:53Z</time>
      </trkpt>
      <trkpt lat="56.88818915501" lon="14.832377642275">
        <ele>170.2</ele>
        <time>2020-01-14T19:05:01Z</time>
      </trkpt>
      <trkpt lat="56.888194267969" lon="14.832212183569">
        <ele>169.8</ele>
        <time>2020-01-14T19:05:05Z</time>
      </trkpt>
      <trkpt lat="56.888192256313" lon="14.831984698803">
        <ele>168.4</ele>
        <time>2020-01-14T19:05:11Z</time>
      </trkpt>
      <trkpt lat="56.888202146955" lon="14.831819659192">
        <ele>167.2</ele>
        <time>2020-01-14T19:05:15Z</time>
      </trkpt>
      <trkpt lat="56.888205667353" lon="14.831664342585">
        <ele>166</ele>
        <time>2020-01-14T19:05:18Z</time>
      </trkpt>
      <trkpt lat="56.888222179696" lon="14.831393104301">
        <ele>164.8</ele>
        <time>2020-01-14T19:05:24Z</time>
      </trkpt>
      <trkpt lat="56.888231315967" lon="14.831214150736">
        <ele>163.2</ele>
        <time>2020-01-14T19:05:28Z</time>
      </trkpt>
      <trkpt lat="56.888240536057" lon="14.831056990111">
        <ele>162.2</ele>
        <time>2020-01-14T19:05:32Z</time>
      </trkpt>
      <trkpt lat="56.888281439729" lon="14.830730347468">
        <ele>162.2</ele>
        <time>2020-01-14T19:05:40Z</time>
      </trkpt>
      <trkpt lat="56.888316308433" lon="14.83038484555">
        <ele>162</ele>
        <time>2020-01-14T19:05:48Z</time>
      </trkpt>
      <trkpt lat="56.888408006419" lon="14.830082426598">
        <ele>161.4</ele>
        <time>2020-01-14T19:05:57Z</time>
      </trkpt>
      <trkpt lat="56.888451257023" lon="14.829995003381">
        <ele>161.2</ele>
        <time>2020-01-14T19:06:01Z</time>
      </trkpt>
      <trkpt lat="56.888614452616" lon="14.829816217454">
        <ele>161.2</ele>
        <time>2020-01-14T19:06:13Z</time>
      </trkpt>
      <trkpt lat="56.888804721746" lon="14.829760980733">
        <ele>161.4</ele>
        <time>2020-01-14T19:06:21Z</time>
      </trkpt>
      <trkpt lat="56.888983507673" lon="14.829690488954">
        <ele>161.2</ele>
        <time>2020-01-14T19:06:30Z</time>
      </trkpt>
      <trkpt lat="56.889178805943" lon="14.829635336052">
        <ele>161.8</ele>
        <time>2020-01-14T19:06:40Z</time>
      </trkpt>
      <trkpt lat="56.889369913263" lon="14.829601221719">
        <ele>161.6</ele>
        <time>2020-01-14T19:06:49Z</time>
      </trkpt>
      <trkpt lat="56.889558841289" lon="14.82954497917">
        <ele>161.8</ele>
        <time>2020-01-14T19:06:56Z</time>
      </trkpt>
      <trkpt lat="56.889640564814" lon="14.829477672513">
        <ele>161.4</ele>
        <time>2020-01-14T19:06:59Z</time>
      </trkpt>
      <trkpt lat="56.889651628922" lon="14.829415814091">
        <ele>161.2</ele>
        <time>2020-01-14T19:07:01Z</time>
      </trkpt>
      <trkpt lat="56.889651880379" lon="14.829071066544">
        <ele>161.6</ele>
        <time>2020-01-14T19:07:09Z</time>
      </trkpt>
      <trkpt lat="56.889763192011" lon="14.828785746668">
        <ele>161</ele>
        <time>2020-01-14T19:07:17Z</time>
      </trkpt>
      <trkpt lat="56.889893111461" lon="14.828519705162">
        <ele>161.8</ele>
        <time>2020-01-14T19:07:25Z</time>
      </trkpt>
      <trkpt lat="56.890053457208" lon="14.828301524305">
        <ele>161.4</ele>
        <time>2020-01-14T19:07:34Z</time>
      </trkpt>
      <trkpt lat="56.890093019776" lon="14.827995417317">
        <ele>161</ele>
        <time>2020-01-14T19:07:42Z</time>
      </trkpt>
      <trkpt lat="56.890169965618" lon="14.827669780502">
        <ele>160.8</ele>
        <time>2020-01-14T19:07:47Z</time>
      </trkpt>
      <trkpt lat="56.890206762159" lon="14.827319333263">
        <ele>161</ele>
        <time>2020-01-14T19:07:56Z</time>
      </trkpt>
      <trkpt lat="56.890236685542" lon="14.826990343688">
        <ele>160.8</ele>
        <time>2020-01-14T19:08:04Z</time>
      </trkpt>
      <trkpt lat="56.890254958084" lon="14.826632688015">
        <ele>161.2</ele>
        <time>2020-01-14T19:08:13Z</time>
      </trkpt>
      <trkpt lat="56.890291922263" lon="14.826303530802">
        <ele>161.2</ele>
        <time>2020-01-14T19:08:20Z</time>
      </trkpt>
      <trkpt lat="56.890351014658" lon="14.825987533172">
        <ele>161.4</ele>
        <time>2020-01-14T19:08:27Z</time>
      </trkpt>
      <trkpt lat="56.890433408735" lon="14.825687544971">
        <ele>161.4</ele>
        <time>2020-01-14T19:08:35Z</time>
      </trkpt>
      <trkpt lat="56.890480598832" lon="14.825565169231">
        <ele>162.4</ele>
        <time>2020-01-14T19:08:39Z</time>
      </trkpt>
      <trkpt lat="56.890610266825" lon="14.82530709053">
        <ele>162.6</ele>
        <time>2020-01-14T19:08:47Z</time>
      </trkpt>
      <trkpt lat="56.890732474927" lon="14.825045407612">
        <ele>162.4</ele>
        <time>2020-01-14T19:08:56Z</time>
      </trkpt>
      <trkpt lat="56.8908302917" lon="14.82474215047">
        <ele>163.4</ele>
        <time>2020-01-14T19:09:06Z</time>
      </trkpt>
      <trkpt lat="56.890870776277" lon="14.82465078776">
        <ele>164.4</ele>
        <time>2020-01-14T19:09:10Z</time>
      </trkpt>
      <trkpt lat="56.890923163152" lon="14.824572752271">
        <ele>165.6</ele>
        <time>2020-01-14T19:09:14Z</time>
      </trkpt>
      <trkpt lat="56.890968173955" lon="14.824481557199">
        <ele>167</ele>
        <time>2020-01-14T19:09:18Z</time>
      </trkpt>
      <trkpt lat="56.891011676016" lon="14.824432606903">
        <ele>167.6</ele>
        <time>2020-01-14T19:09:23Z</time>
      </trkpt>
      <trkpt lat="56.891037743725" lon="14.824305118204">
        <ele>167.2</ele>
        <time>2020-01-14T19:09:30Z</time>
      </trkpt>
    </trkseg>
  </trk>
</gpx>